Arnegard, North Dakota
Current Conditions -  °F | °C
As of 12:52 AM on Sunday 26 Oct 2014 (Local Time) from KISN Reporting Station
Clear Clear  
Wind Chill: 54°   Ceiling: Unl
Heat Index: 54°   Visibility: 10mi
Dew Point: 30°   Wind: 14mph
Humidity: 40%   Direction: 130°SE
Pressure: 29.72"   Gusts: NA
Location:  47.81°N, 103.44°W
Report Text: KISN 260552Z AUTO 13012KT 10SM CLR 12/M01 A2972 RMK AO2 SLP066 T01221011 10139 20106 401781006 58035
Loading
Personal Weather Stations






























Interactive Weather Map New forecast layout! Learn more

10-Day Weather Forecast

Advertisements
Track Severe Weather on mobile